Time;durP1;ratioP1;P1;durP2;ratioP2;P2;SDS_P1;SDS_P2;PMS_P1;PMS_P2;Temp;Humidity;BMP_temperature;BMP_pressure;BME280_temperature;BME280_humidity;BME280_pressure;Samples;Min_cycle;Max_cycle;Signal;HPM_P1;HPM_P2
2021/10/11 00:01:28;;;;;;;4.30;3.58;;;16.10;80.30;;;;;;5096842;28;20036;-63
2021/10/11 00:03:54;;;;;;;4.65;3.63;;;16.00;80.20;;;;;;5095163;28;20113;-62
2021/10/11 00:06:20;;;;;;;4.22;3.83;;;16.00;80.20;;;;;;5096525;28;20043;-61
2021/10/11 00:08:45;;;;;;;4.38;3.53;;;16.10;80.30;;;;;;5096496;28;20549;-63
2021/10/11 00:11:11;;;;;;;10.85;3.70;;;16.10;80.30;;;;;;5096430;28;20097;-62
2021/10/11 00:13:37;;;;;;;4.10;3.70;;;16.00;80.20;;;;;;5096260;28;20075;-62
2021/10/11 00:16:03;;;;;;;4.15;3.75;;;16.00;80.20;;;;;;5096754;28;20618;-63
2021/10/11 00:18:28;;;;;;;3.95;3.47;;;16.00;80.20;;;;;;5096611;28;20495;-62
2021/10/11 00:20:54;;;;;;;4.65;3.95;;;16.00;80.20;;;;;;5096123;28;20115;-63
2021/10/11 00:23:20;;;;;;;4.78;3.70;;;16.00;80.20;;;;;;5096487;28;20422;-62
2021/10/11 00:25:45;;;;;;;5.18;4.00;;;16.00;80.20;;;;;;5096586;28;20518;-63
2021/10/11 00:28:11;;;;;;;3.97;3.40;;;16.00;80.20;;;;;;5095958;28;20367;-63
2021/10/11 00:30:37;;;;;;;3.83;3.47;;;16.00;80.20;;;;;;5096527;28;20051;-63
2021/10/11 00:33:03;;;;;;;4.20;3.42;;;16.00;80.20;;;;;;5096282;28;20036;-61
2021/10/11 00:35:29;;;;;;;3.80;3.40;;;16.00;80.20;;;;;;5094697;28;20059;-62
2021/10/11 00:37:55;;;;;;;3.90;3.15;;;16.00;80.20;;;;;;5096203;28;20040;-61
2021/10/11 00:40:20;;;;;;;4.72;3.25;;;16.00;80.20;;;;;;5095864;28;20040;-63
2021/10/11 00:42:46;;;;;;;3.42;2.97;;;16.00;80.20;;;;;;5095849;28;20036;-62
2021/10/11 00:45:12;;;;;;;3.55;3.25;;;16.00;80.20;;;;;;5095236;28;20055;-63
2021/10/11 00:47:37;;;;;;;3.58;3.22;;;16.10;80.20;;;;;;5096029;28;20040;-63
2021/10/11 00:50:04;;;;;;;3.42;3.13;;;16.00;80.20;;;;;;5095795;28;20048;-63
2021/10/11 00:52:30;;;;;;;5.30;3.40;;;16.00;80.20;;;;;;5095892;28;20055;-62
2021/10/11 00:54:55;;;;;;;3.50;3.00;;;16.00;80.20;;;;;;5095405;28;20035;-62
2021/10/11 00:57:21;;;;;;;3.72;3.42;;;16.10;80.20;;;;;;5095820;28;20074;-63
2021/10/11 00:59:47;;;;;;;3.45;3.10;;;16.00;80.10;;;;;;5094933;28;20044;-63
2021/10/11 01:02:12;;;;;;;3.42;3.13;;;16.10;80.20;;;;;;5095408;28;20044;-62
2021/10/11 01:04:38;;;;;;;3.70;3.22;;;16.00;80.20;;;;;;5095627;28;20401;-63
2021/10/11 01:07:04;;;;;;;3.70;3.20;;;16.00;80.10;;;;;;5095636;28;20043;-63
2021/10/11 01:09:29;;;;;;;3.63;2.97;;;16.00;80.10;;;;;;5095416;28;20051;-62
2021/10/11 01:11:55;;;;;;;3.53;3.22;;;16.00;80.20;;;;;;5093650;28;20040;-61
2021/10/11 01:14:21;;;;;;;4.03;3.00;;;16.00;80.10;;;;;;5095090;28;20048;-62
2021/10/11 01:16:50;;;;;;;3.33;3.03;;;16.00;80.10;;;;;;5095045;28;20036;-63
2021/10/11 01:19:16;;;;;;;4.00;3.33;;;16.00;80.20;;;;;;5095515;28;20048;-62
2021/10/11 01:21:42;;;;;;;3.33;3.03;;;16.00;80.10;;;;;;5077275;28;20044;-62
2021/10/11 01:24:08;;;;;;;3.42;3.13;;;16.00;80.10;;;;;;5095110;28;20052;-62
2021/10/11 01:26:39;;;;;;;3.80;3.33;;;16.00;80.10;;;;;;5095051;28;20453;-62
2021/10/11 01:29:06;;;;;;;3.15;2.78;;;16.00;80.10;;;;;;5095158;28;20066;-61
2021/10/11 01:31:32;;;;;;;3.90;3.50;;;16.00;80.10;;;;;;5094621;28;20040;-61
2021/10/11 01:33:58;;;;;;;3.13;2.83;;;16.00;80.10;;;;;;5094786;28;20578;-62
2021/10/11 01:36:24;;;;;;;3.38;2.90;;;16.00;80.10;;;;;;5095075;28;20048;-62
2021/10/11 01:38:56;;;;;;;3.47;3.15;;;16.00;80.10;;;;;;5094797;28;20036;-62
2021/10/11 01:41:22;;;;;;;3.13;2.83;;;16.00;80.10;;;;;;5093545;28;20117;-62
2021/10/11 01:43:48;;;;;;;3.25;2.90;;;16.00;80.00;;;;;;5094996;28;20040;-62
2021/10/11 01:46:14;;;;;;;3.03;2.72;;;16.00;80.10;;;;;;5094646;28;20123;-61
2021/10/11 01:48:40;;;;;;;4.40;3.28;;;16.00;80.10;;;;;;5094434;28;20458;-62
2021/10/11 01:51:05;;;;;;;2.85;2.55;;;16.00;80.10;;;;;;5094866;28;20123;-60
2021/10/11 01:53:31;;;;;;;3.50;3.20;;;16.00;80.10;;;;;;5094733;28;20131;-62
2021/10/11 01:55:57;;;;;;;3.17;2.88;;;16.00;80.10;;;;;;5094176;28;20146;-61
2021/10/11 01:58:23;;;;;;;3.30;3.00;;;16.10;80.20;;;;;;5094544;28;20044;-62
2021/10/11 02:00:48;;;;;;;4.65;3.10;;;16.00;80.10;;;;;;5094329;28;20090;-60
2021/10/11 02:03:14;;;;;;;3.67;3.15;;;16.00;80.10;;;;;;5093889;28;20140;-62
2021/10/11 02:05:40;;;;;;;4.07;3.22;;;16.00;80.10;;;;;;5094437;28;20055;-62
2021/10/11 02:08:05;;;;;;;3.10;2.80;;;16.00;80.10;;;;;;5094091;28;20067;-62
2021/10/11 02:10:31;;;;;;;3.42;2.75;;;16.00;80.10;;;;;;5093973;28;20393;-62
2021/10/11 02:13:02;;;;;;;3.00;2.70;;;16.00;80.10;;;;;;5093922;28;20051;-62
2021/10/11 02:15:28;;;;;;;4.05;3.08;;;16.00;80.10;;;;;;5093986;28;20050;-62
2021/10/11 02:17:56;;;;;;;4.40;2.90;;;16.00;80.00;;;;;;5092533;28;20044;-62
2021/10/11 02:20:23;;;;;;;2.92;2.63;;;16.00;80.10;;;;;;5093007;28;20044;-62
2021/10/11 02:22:49;;;;;;;2.97;2.50;;;16.00;80.10;;;;;;5094133;28;20044;-62
2021/10/11 02:25:15;;;;;;;3.20;2.90;;;16.00;80.10;;;;;;5093997;28;20075;-62
2021/10/11 02:27:41;;;;;;;3.47;3.13;;;16.00;80.10;;;;;;5093869;28;20047;-62
2021/10/11 02:30:09;;;;;;;3.15;2.63;;;16.00;80.00;;;;;;5093704;28;20051;-62
2021/10/11 02:32:37;;;;;;;3.00;2.70;;;16.00;80.00;;;;;;5093779;28;20048;-62
2021/10/11 02:35:07;;;;;;;2.90;2.70;;;16.00;80.00;;;;;;5093376;28;20534;-62
2021/10/11 02:37:33;;;;;;;3.10;2.80;;;16.00;80.10;;;;;;5093704;28;20476;-62
2021/10/11 02:39:58;;;;;;;3.22;2.60;;;16.00;80.00;;;;;;5093617;28;20047;-62
2021/10/11 02:42:25;;;;;;;4.30;3.17;;;16.00;80.10;;;;;;5093635;28;20083;-63
2021/10/11 02:44:51;;;;;;;2.92;2.60;;;16.00;80.00;;;;;;5093595;28;20438;-62
2021/10/11 02:47:17;;;;;;;3.50;2.60;;;16.00;80.00;;;;;;5093672;28;20419;-62
2021/10/11 02:49:43;;;;;;;3.38;2.72;;;16.00;80.00;;;;;;5093060;28;20562;-63
2021/10/11 02:52:08;;;;;;;2.83;2.53;;;16.00;80.00;;;;;;5093593;28;20075;-62
2021/10/11 02:54:34;;;;;;;2.60;2.30;;;16.00;80.00;;;;;;5093221;28;20453;-63
2021/10/11 02:57:00;;;;;;;3.25;2.95;;;16.00;80.00;;;;;;5093459;28;20050;-62
2021/10/11 02:59:25;;;;;;;3.05;2.70;;;16.00;80.00;;;;;;5093583;28;20040;-62
2021/10/11 03:01:51;;;;;;;2.10;1.90;;;16.00;80.00;;;;;;5093216;28;20441;-61
2021/10/11 03:04:17;;;;;;;2.60;2.30;;;16.00;80.00;;;;;;5093183;28;20044;-62
2021/10/11 03:06:43;;;;;;;3.25;2.20;;;16.00;80.00;;;;;;5092659;28;20039;-62
2021/10/11 03:09:08;;;;;;;3.03;2.65;;;16.00;80.00;;;;;;5093223;28;20046;-61
2021/10/11 03:11:34;;;;;;;2.67;2.47;;;16.10;80.10;;;;;;5092808;28;20044;-62
2021/10/11 03:14:00;;;;;;;3.60;2.60;;;16.10;80.10;;;;;;5093208;28;20044;-60
2021/10/11 03:16:26;;;;;;;2.60;2.40;;;16.00;80.00;;;;;;5092951;28;20048;-62
2021/10/11 03:18:52;;;;;;;2.28;2.08;;;16.00;80.00;;;;;;5093180;28;20181;-62
2021/10/11 03:21:21;;;;;;;2.63;2.42;;;16.00;80.00;;;;;;5093071;28;20051;-62
2021/10/11 03:23:48;;;;;;;3.33;2.53;;;16.00;80.00;;;;;;5092821;28;20451;-60
2021/10/11 03:26:14;;;;;;;3.15;2.47;;;16.00;80.00;;;;;;5092812;28;20056;-62
2021/10/11 03:28:40;;;;;;;3.08;2.38;;;16.00;80.10;;;;;;5092783;28;20498;-62
2021/10/11 03:31:06;;;;;;;2.83;2.47;;;16.00;80.00;;;;;;5093189;28;20075;-62
2021/10/11 03:33:32;;;;;;;3.58;2.70;;;16.00;80.00;;;;;;5092177;28;20480;-62
2021/10/11 03:35:57;;;;;;;2.63;2.42;;;16.00;80.00;;;;;;5093021;28;20048;-61
2021/10/11 03:38:23;;;;;;;2.53;2.33;;;15.90;80.00;;;;;;5092458;28;20047;-62
2021/10/11 03:40:49;;;;;;;3.33;2.42;;;16.00;80.00;;;;;;5092549;28;20046;-62
2021/10/11 03:43:14;;;;;;;3.55;2.80;;;15.90;80.00;;;;;;5092784;28;20040;-62
2021/10/11 03:45:40;;;;;;;2.70;2.20;;;16.00;80.00;;;;;;5092575;28;20392;-61
2021/10/11 03:48:06;;;;;;;3.00;2.40;;;16.00;80.00;;;;;;5092599;28;20476;-62
2021/10/11 03:50:32;;;;;;;3.00;2.42;;;16.00;80.10;;;;;;5092605;28;20119;-62
2021/10/11 03:52:58;;;;;;;3.13;2.70;;;16.00;80.00;;;;;;5092677;28;20125;-62
2021/10/11 03:55:23;;;;;;;3.15;2.45;;;16.00;80.00;;;;;;5092000;28;20177;-62
2021/10/11 03:57:49;;;;;;;2.67;2.40;;;16.00;80.00;;;;;;5092314;28;20074;-62
2021/10/11 04:00:15;;;;;;;2.95;2.42;;;16.00;80.00;;;;;;5092579;28;20073;-63
2021/10/11 04:02:41;;;;;;;2.80;2.33;;;16.00;80.00;;;;;;5092536;28;20047;-62
2021/10/11 04:05:08;;;;;;;4.18;2.45;;;16.00;80.10;;;;;;5092529;28;20048;-63
2021/10/11 04:07:34;;;;;;;2.50;2.30;;;16.00;80.00;;;;;;5092464;28;20051;-62
2021/10/11 04:10:03;;;;;;;2.65;2.38;;;16.00;80.00;;;;;;5091950;28;20146;-63
2021/10/11 04:12:34;;;;;;;2.30;2.08;;;15.90;80.00;;;;;;5092610;28;20040;-63
2021/10/11 04:15:01;;;;;;;2.45;2.17;;;15.90;80.00;;;;;;5092464;28;20399;-63
2021/10/11 04:17:27;;;;;;;2.60;2.13;;;15.90;80.00;;;;;;5092487;28;20450;-62
2021/10/11 04:19:53;;;;;;;2.30;2.10;;;16.00;80.00;;;;;;5090971;28;20048;-62
2021/10/11 04:22:18;;;;;;;4.38;2.15;;;16.00;80.00;;;;;;5092260;28;20047;-62
2021/10/11 04:24:44;;;;;;;2.30;2.10;;;15.90;80.00;;;;;;5092153;28;20082;-62
2021/10/11 04:27:09;;;;;;;2.47;2.00;;;16.00;80.00;;;;;;5092117;28;20400;-62
2021/10/11 04:29:35;;;;;;;3.45;2.38;;;16.00;80.00;;;;;;5091892;28;20117;-62
2021/10/11 04:32:01;;;;;;;4.00;2.50;;;16.00;80.00;;;;;;5091962;28;20079;-62
2021/10/11 04:34:27;;;;;;;2.15;1.80;;;15.90;80.00;;;;;;5092016;28;20037;-62
2021/10/11 04:36:52;;;;;;;2.85;2.28;;;15.90;80.00;;;;;;5092291;28;20073;-61
2021/10/11 04:39:18;;;;;;;2.45;2.25;;;15.90;80.00;;;;;;5092388;28;20044;-62
2021/10/11 04:41:43;;;;;;;2.10;1.88;;;15.90;80.00;;;;;;5091436;28;20047;-62
2021/10/11 04:44:09;;;;;;;2.42;2.05;;;15.90;80.00;;;;;;5093362;28;20048;-62
2021/10/11 04:46:35;;;;;;;2.33;2.00;;;15.90;80.00;;;;;;5095748;28;20503;-62
2021/10/11 04:49:00;;;;;;;2.83;2.42;;;15.90;80.00;;;;;;5094579;28;20101;-62
2021/10/11 04:51:26;;;;;;;2.10;1.90;;;15.90;80.00;;;;;;5095868;28;20097;-62
2021/10/11 04:53:54;;;;;;;2.30;2.10;;;16.00;80.00;;;;;;5095532;28;20051;-63
2021/10/11 04:56:20;;;;;;;2.80;1.85;;;16.00;80.00;;;;;;5095552;28;20126;-63
2021/10/11 04:58:45;;;;;;;2.65;2.30;;;15.90;80.00;;;;;;5094716;28;20040;-62
2021/10/11 05:01:11;;;;;;;2.35;2.10;;;15.90;79.90;;;;;;5095571;28;20111;-62
2021/10/11 05:03:37;;;;;;;3.65;2.45;;;15.90;79.90;;;;;;5095333;28;20040;-62
2021/10/11 05:06:02;;;;;;;2.50;2.05;;;15.90;79.90;;;;;;5095221;28;20044;-62
2021/10/11 05:08:29;;;;;;;2.30;1.95;;;15.90;80.00;;;;;;5095350;28;20165;-62
2021/10/11 05:10:55;;;;;;;2.33;1.90;;;15.90;80.00;;;;;;5095199;28;20496;-62
2021/10/11 05:13:21;;;;;;;2.25;1.80;;;15.90;79.90;;;;;;5094413;28;20042;-62
2021/10/11 05:15:46;;;;;;;2.08;1.77;;;15.90;80.00;;;;;;5095178;28;20100;-62
2021/10/11 05:18:12;;;;;;;2.38;2.13;;;16.00;80.00;;;;;;5095125;28;20040;-63
2021/10/11 05:20:38;;;;;;;2.47;2.28;;;16.00;80.00;;;;;;5094133;28;20048;-62
2021/10/11 05:23:04;;;;;;;2.17;1.90;;;15.90;79.90;;;;;;5095231;28;20051;-62
2021/10/11 05:25:30;;;;;;;1.90;1.80;;;15.90;80.00;;;;;;5095415;28;20101;-62
2021/10/11 05:27:56;;;;;;;2.20;2.00;;;15.90;79.90;;;;;;5094848;28;20040;-63
2021/10/11 05:30:22;;;;;;;2.40;1.80;;;15.90;79.90;;;;;;5094453;28;20051;-62
2021/10/11 05:32:48;;;;;;;2.38;2.00;;;15.90;80.60;;;;;;5095203;28;20078;-63
2021/10/11 05:35:14;;;;;;;1.80;1.58;;;15.90;80.00;;;;;;5095304;28;20084;-62
2021/10/11 05:37:40;;;;;;;2.17;1.98;;;15.90;79.90;;;;;;5094837;28;20040;-63
2021/10/11 05:40:07;;;;;;;1.80;1.70;;;15.90;79.90;;;;;;5095232;28;20040;-62
2021/10/11 05:42:33;;;;;;;2.10;1.90;;;15.90;79.90;;;;;;5094770;28;20044;-62
2021/10/11 05:44:58;;;;;;;2.90;1.75;;;15.90;79.90;;;;;;5094100;28;20051;-63
2021/10/11 05:47:24;;;;;;;2.40;1.77;;;15.90;79.90;;;;;;5094167;28;20069;-62
2021/10/11 05:49:50;;;;;;;2.60;2.03;;;16.00;80.00;;;;;;5094699;28;20122;-62
2021/10/11 05:52:15;;;;;;;2.00;1.80;;;15.90;79.90;;;;;;5092803;28;20416;-61
2021/10/11 05:54:41;;;;;;;1.77;1.50;;;15.90;79.90;;;;;;5092107;28;20074;-63
2021/10/11 05:57:07;;;;;;;2.00;1.80;;;15.90;79.90;;;;;;5092782;28;20048;-63
2021/10/11 05:59:32;;;;;;;2.08;1.88;;;15.90;79.90;;;;;;5093685;28;20145;-63
2021/10/11 06:01:58;;;;;;;2.17;1.77;;;15.90;79.90;;;;;;5093131;28;20044;-62
2021/10/11 06:04:24;;;;;;;2.40;2.10;;;15.90;79.90;;;;;;5094478;28;20044;-62
2021/10/11 06:06:49;;;;;;;1.98;1.77;;;15.90;79.90;;;;;;5094289;28;20488;-62
2021/10/11 06:09:17;;;;;;;2.42;2.13;;;15.90;79.90;;;;;;5094116;28;20051;-62
2021/10/11 06:11:43;;;;;;;2.13;1.90;;;15.90;79.90;;;;;;5094407;28;20048;-62
2021/10/11 06:14:09;;;;;;;2.10;1.90;;;15.90;79.90;;;;;;5093964;28;20048;-62
2021/10/11 06:16:35;;;;;;;2.50;2.03;;;15.90;79.90;;;;;;5093456;28;20036;-62
2021/10/11 06:19:00;;;;;;;1.90;1.63;;;15.90;79.90;;;;;;5094144;28;20048;-62
2021/10/11 06:21:26;;;;;;;2.58;1.83;;;15.90;79.90;;;;;;5093758;28;20032;-62
2021/10/11 06:23:52;;;;;;;2.15;1.92;;;15.90;79.90;;;;;;5093997;28;20051;-62
2021/10/11 06:26:18;;;;;;;1.70;1.60;;;15.90;79.90;;;;;;5094071;28;20063;-61
2021/10/11 06:28:44;;;;;;;1.80;1.70;;;15.90;79.90;;;;;;5093660;28;20090;-62
2021/10/11 06:31:09;;;;;;;1.88;1.70;;;15.90;79.90;;;;;;5093370;28;20161;-62
2021/10/11 06:33:35;;;;;;;2.40;1.85;;;15.90;79.90;;;;;;5093191;28;20077;-62
2021/10/11 06:36:01;;;;;;;2.33;1.70;;;15.90;79.90;;;;;;5093748;28;20089;-60
2021/10/11 06:38:27;;;;;;;1.90;1.60;;;15.90;79.90;;;;;;5093258;28;20048;-62
2021/10/11 06:40:53;;;;;;;1.88;1.70;;;15.90;79.90;;;;;;5093744;28;20036;-62
2021/10/11 06:43:19;;;;;;;2.30;1.80;;;15.90;79.90;;;;;;5093534;28;20401;-62
2021/10/11 06:45:45;;;;;;;1.98;1.52;;;15.90;79.90;;;;;;5093399;28;20054;-63
2021/10/11 06:48:10;;;;;;;1.70;1.60;;;15.90;80.50;;;;;;5092856;28;20544;-62
2021/10/11 06:50:36;;;;;;;2.08;1.85;;;15.90;79.80;;;;;;5093265;28;20040;-61
2021/10/11 06:53:03;;;;;;;2.28;1.92;;;15.90;79.80;;;;;;5093601;28;20039;-62
2021/10/11 06:55:28;;;;;;;2.00;1.83;;;15.90;79.80;;;;;;5093234;28;20039;-62
2021/10/11 06:57:54;;;;;;;2.65;1.85;;;15.90;79.90;;;;;;5093198;28;20099;-62
2021/10/11 07:00:20;;;;;;;3.05;1.63;;;15.90;79.90;;;;;;5093426;28;20036;-62
2021/10/11 07:02:46;;;;;;;1.60;1.50;;;15.90;79.90;;;;;;5093002;28;20052;-62
2021/10/11 07:05:11;;;;;;;2.08;1.70;;;15.90;79.80;;;;;;5092842;28;20044;-62
2021/10/11 07:07:41;;;;;;;2.03;1.70;;;15.90;79.90;;;;;;5093009;28;20044;-62
2021/10/11 07:10:08;;;;;;;2.15;1.70;;;15.90;79.90;;;;;;5092951;28;20043;-62
2021/10/11 07:12:34;;;;;;;1.75;1.65;;;15.90;79.90;;;;;;5093079;28;20435;-63
2021/10/11 07:15:00;;;;;;;2.13;1.65;;;15.90;79.90;;;;;;5093050;28;20097;-62
2021/10/11 07:17:26;;;;;;;2.35;1.60;;;15.90;79.90;;;;;;5092545;28;20465;-62
2021/10/11 07:19:52;;;;;;;2.28;1.73;;;15.90;79.90;;;;;;5092316;28;20055;-62
2021/10/11 07:22:18;;;;;;;1.52;1.42;;;15.90;79.90;;;;;;5091837;28;20064;-62
2021/10/11 07:24:45;;;;;;;2.30;1.67;;;15.90;79.90;;;;;;5092991;28;20056;-62
2021/10/11 07:27:11;;;;;;;1.60;1.42;;;15.90;79.90;;;;;;5092695;28;20051;-60
2021/10/11 07:29:37;;;;;;;1.55;1.40;;;15.90;79.90;;;;;;5091848;28;20083;-61
2021/10/11 07:32:04;;;;;;;3.15;1.60;;;15.90;79.90;;;;;;5092691;28;20481;-62
2021/10/11 07:34:30;;;;;;;1.83;1.63;;;15.90;79.90;;;;;;5092758;28;20669;-62
2021/10/11 07:36:56;;;;;;;1.75;1.63;;;15.90;79.90;;;;;;5092583;28;20115;-61
2021/10/11 07:39:21;;;;;;;2.40;1.70;;;15.90;79.90;;;;;;5092232;28;20062;-61
2021/10/11 07:41:47;;;;;;;1.73;1.45;;;15.90;79.90;;;;;;5092853;28;20044;-62
2021/10/11 07:44:13;;;;;;;1.60;1.50;;;15.90;79.90;;;;;;5092304;28;20051;-62
2021/10/11 07:46:38;;;;;;;2.28;1.60;;;15.80;79.80;;;;;;5090390;28;20480;-62
2021/10/11 07:49:05;;;;;;;2.40;1.70;;;15.90;79.90;;;;;;5082516;28;20042;-62
2021/10/11 07:51:31;;;;;;;1.75;1.48;;;15.90;79.90;;;;;;5072003;28;20044;-62
2021/10/11 07:53:57;;;;;;;1.60;1.50;;;15.90;79.90;;;;;;5080061;28;20555;-62
2021/10/11 07:56:23;;;;;;;3.45;1.60;;;15.90;79.90;;;;;;5092177;28;20036;-62
2021/10/11 07:58:49;;;;;;;1.80;1.60;;;15.90;79.90;;;;;;5092361;28;20546;-62
2021/10/11 08:01:14;;;;;;;1.77;1.38;;;15.90;79.90;;;;;;5092227;28;20131;-63
2021/10/11 08:03:40;;;;;;;1.90;1.70;;;15.90;79.90;;;;;;5090297;28;20055;-60
2021/10/11 08:06:07;;;;;;;1.65;1.55;;;15.90;80.00;;;;;;5090839;28;20090;-62
2021/10/11 08:08:34;;;;;;;2.08;1.50;;;15.90;79.90;;;;;;5090325;28;20050;-61
2021/10/11 08:11:01;;;;;;;1.75;1.40;;;15.90;79.90;;;;;;5092198;28;20047;-62
2021/10/11 08:13:27;;;;;;;3.00;1.63;;;15.90;79.90;;;;;;5090670;28;20052;-60
2021/10/11 08:15:54;;;;;;;1.95;1.75;;;15.90;79.90;;;;;;5092063;28;20475;-62
2021/10/11 08:18:20;;;;;;;2.63;1.55;;;15.90;79.90;;;;;;5090696;28;20056;-61
2021/10/11 08:20:46;;;;;;;2.03;1.70;;;15.90;80.00;;;;;;5095967;28;20055;-63
2021/10/11 08:23:12;;;;;;;1.92;1.40;;;15.80;79.90;;;;;;5095897;28;20560;-61
2021/10/11 08:25:38;;;;;;;1.83;1.70;;;15.90;80.00;;;;;;5095963;28;20093;-61
2021/10/11 08:28:04;;;;;;;1.90;1.40;;;15.90;80.00;;;;;;5096147;28;20043;-63
2021/10/11 08:30:31;;;;;;;1.70;1.30;;;15.90;79.90;;;;;;5095591;28;20144;-62
2021/10/11 08:32:58;;;;;;;1.88;1.58;;;15.90;79.90;;;;;;5096014;28;20056;-62
2021/10/11 08:35:23;;;;;;;2.25;1.30;;;15.90;80.00;;;;;;5095772;28;20135;-62
2021/10/11 08:37:50;;;;;;;1.88;1.50;;;15.90;80.00;;;;;;5095742;28;20433;-62
2021/10/11 08:40:17;;;;;;;1.60;1.40;;;15.90;79.90;;;;;;5095663;28;20075;-62
2021/10/11 08:42:43;;;;;;;1.42;1.33;;;15.90;80.00;;;;;;5094014;28;20048;-62
2021/10/11 08:45:10;;;;;;;1.52;1.40;;;15.90;80.00;;;;;;5095408;28;20118;-60
2021/10/11 08:47:37;;;;;;;1.70;1.60;;;15.90;80.00;;;;;;5095462;28;20476;-62
2021/10/11 08:50:04;;;;;;;1.60;1.50;;;15.80;79.90;;;;;;5093912;28;20051;-60
2021/10/11 08:52:29;;;;;;;2.10;1.60;;;15.90;80.00;;;;;;5094523;28;20169;-62
2021/10/11 08:54:56;;;;;;;1.30;1.20;;;15.90;80.00;;;;;;5093473;28;20123;-62
2021/10/11 08:57:23;;;;;;;2.08;1.50;;;15.90;80.10;;;;;;5095446;28;20036;-62
2021/10/11 08:59:49;;;;;;;1.67;1.50;;;15.90;80.00;;;;;;5090997;28;20062;-60
2021/10/11 09:02:19;;;;;;;1.42;1.33;;;15.90;80.00;;;;;;5093544;28;20050;-60
2021/10/11 09:04:47;;;;;;;1.60;1.50;;;15.90;80.00;;;;;;5090267;28;20058;-61
2021/10/11 09:07:12;;;;;;;1.77;1.45;;;15.90;80.00;;;;;;5091275;28;20093;-61
2021/10/11 09:09:48;;;;;;;2.15;1.52;;;15.90;80.00;;;;;;5089120;28;20076;-62
2021/10/11 09:12:19;;;;;;;1.30;1.20;;;15.90;80.00;;;;;;5090563;28;20492;-61
2021/10/11 09:14:52;;;;;;;1.30;1.20;;;15.90;80.00;;;;;;5090938;28;20072;-62
2021/10/11 09:17:22;;;;;;;1.33;1.20;;;15.90;80.00;;;;;;5090364;28;20048;-61
2021/10/11 09:19:57;;;;;;;2.15;1.45;;;15.90;80.00;;;;;;5090552;28;20048;-61
2021/10/11 09:22:34;;;;;;;1.65;1.55;;;15.90;80.00;;;;;;5090654;28;20055;-60
2021/10/11 09:25:00;;;;;;;1.38;1.23;;;15.90;80.00;;;;;;5090677;28;20048;-62
2021/10/11 09:27:26;;;;;;;2.15;1.60;;;15.90;80.00;;;;;;5089902;28;20058;-61
2021/10/11 09:29:52;;;;;;;1.67;1.30;;;15.90;80.00;;;;;;5090362;28;20182;-61
2021/10/11 09:32:17;;;;;;;1.45;1.35;;;15.90;80.00;;;;;;5090143;28;20036;-61
2021/10/11 09:34:43;;;;;;;1.58;1.42;;;15.90;80.00;;;;;;5090869;28;20048;-61
2021/10/11 09:37:13;;;;;;;1.95;1.50;;;15.90;80.00;;;;;;5090219;28;20101;-61
2021/10/11 09:39:40;;;;;;;1.20;1.10;;;15.90;80.70;;;;;;5090457;28;20468;-62
2021/10/11 09:42:11;;;;;;;1.30;1.20;;;15.90;80.00;;;;;;5088747;28;20047;-61
2021/10/11 09:44:37;;;;;;;1.50;1.40;;;15.90;80.00;;;;;;5089075;28;20052;-60
2021/10/11 09:47:08;;;;;;;1.92;1.23;;;15.90;80.00;;;;;;5090706;28;20047;-61
2021/10/11 09:49:34;;;;;;;1.30;1.20;;;15.90;80.00;;;;;;5090796;28;20052;-62
2021/10/11 09:52:01;;;;;;;1.50;1.40;;;15.90;80.00;;;;;;5088274;28;20511;-61
2021/10/11 09:54:26;;;;;;;2.78;1.35;;;15.90;80.00;;;;;;5089333;28;20543;-61
2021/10/11 09:56:52;;;;;;;1.58;1.05;;;15.90;80.00;;;;;;5088110;28;20159;-61
2021/10/11 09:59:18;;;;;;;1.40;1.20;;;15.90;80.00;;;;;;5089801;28;20043;-61
2021/10/11 10:01:46;;;;;;;1.35;1.10;;;15.90;80.00;;;;;;5090142;28;20131;-61
2021/10/11 10:04:26;;;;;;;2.15;1.30;;;15.90;80.00;;;;;;5088524;28;20048;-61
2021/10/11 10:06:55;;;;;;;1.45;1.23;;;15.90;80.00;;;;;;5088638;28;20059;-61
2021/10/11 10:09:23;;;;;;;1.35;1.10;;;15.90;80.00;;;;;;5087910;28;20040;-61
2021/10/11 10:11:49;;;;;;;2.03;1.27;;;15.80;80.00;;;;;;5089500;28;20044;-61
2021/10/11 10:14:24;;;;;;;1.40;1.10;;;15.90;80.00;;;;;;5089059;28;20415;-61
2021/10/11 10:16:52;;;;;;;1.45;1.35;;;15.90;80.00;;;;;;5087604;28;20051;-61
2021/10/11 10:19:21;;;;;;;1.58;1.30;;;15.90;80.00;;;;;;5088207;28;20124;-62
2021/10/11 10:21:47;;;;;;;1.65;1.20;;;15.90;80.00;;;;;;5088966;28;20056;-61
2021/10/11 10:24:26;;;;;;;1.67;1.02;;;16.00;80.00;;;;;;5088105;28;20518;-61
2021/10/11 10:27:10;;;;;;;2.28;1.35;;;15.90;80.00;;;;;;5089585;28;20052;-61
2021/10/11 10:29:49;;;;;;;1.10;1.00;;;15.90;80.00;;;;;;5088651;28;20052;-60
2021/10/11 10:32:18;;;;;;;2.20;1.20;;;15.90;80.00;;;;;;5088767;28;20404;-61
2021/10/11 10:34:46;;;;;;;1.30;1.20;;;15.90;80.00;;;;;;5089239;28;20043;-61
2021/10/11 10:37:13;;;;;;;1.30;1.15;;;15.90;80.00;;;;;;5087646;28;20036;-61
2021/10/11 10:39:46;;;;;;;1.38;1.10;;;15.80;80.00;;;;;;5088443;28;20051;-61
2021/10/11 10:42:30;;;;;;;1.35;1.00;;;15.90;80.00;;;;;;5088252;28;20040;-61
2021/10/11 10:44:57;;;;;;;1.55;1.00;;;15.90;80.00;;;;;;5085888;28;20070;-60
2021/10/11 10:47:37;;;;;;;1.67;1.35;;;15.90;80.00;;;;;;5087061;28;20115;-61
2021/10/11 10:50:10;;;;;;;1.30;1.05;;;15.90;80.00;;;;;;5085029;28;20058;-62
2021/10/11 10:52:36;;;;;;;1.25;1.10;;;15.90;80.00;;;;;;5092477;28;20442;-60
2021/10/11 10:55:02;;;;;;;1.27;1.17;;;15.90;80.00;;;;;;5092205;28;20050;-62
2021/10/11 10:57:30;;;;;;;1.48;1.38;;;15.90;80.00;;;;;;5092463;28;20044;-60
2021/10/11 10:59:58;;;;;;;1.17;1.08;;;15.90;80.00;;;;;;5091979;28;20048;-60
2021/10/11 11:02:23;;;;;;;1.92;1.00;;;15.90;80.00;;;;;;5091459;28;20032;-60
2021/10/11 11:04:58;;;;;;;1.20;1.10;;;15.90;79.90;;;;;;5091962;28;20056;-61
2021/10/11 11:07:36;;;;;;;1.13;1.02;;;15.90;79.90;;;;;;5092267;28;20048;-61
2021/10/11 11:10:11;;;;;;;1.75;1.30;;;15.90;80.00;;;;;;5091674;28;20551;-61
2021/10/11 11:12:39;;;;;;;2.35;1.38;;;15.90;79.90;;;;;;5089747;28;20040;-61
2021/10/11 11:15:10;;;;;;;1.27;1.17;;;15.90;80.00;;;;;;5090525;28;20131;-62
2021/10/11 11:17:38;;;;;;;1.30;1.20;;;15.90;80.00;;;;;;5090351;28;20081;-61
2021/10/11 11:20:13;;;;;;;1.10;1.00;;;16.00;80.00;;;;;;5092342;28;20044;-60
2021/10/11 11:22:38;;;;;;;1.20;1.10;;;15.90;80.00;;;;;;5092282;28;20123;-61
2021/10/11 11:25:05;;;;;;;1.52;0.90;;;15.90;80.00;;;;;;5087960;28;20244;-62
2021/10/11 11:27:36;;;;;;;1.27;1.00;;;15.90;80.00;;;;;;5091272;28;20487;-60
2021/10/11 11:30:13;;;;;;;1.13;1.02;;;15.90;80.00;;;;;;5091592;28;20404;-62
2021/10/11 11:32:50;;;;;;;1.73;1.20;;;16.00;80.00;;;;;;5091544;28;20404;-60
2021/10/11 11:35:17;;;;;;;1.90;1.10;;;15.90;80.00;;;;;;5090204;28;20060;-61
2021/10/11 11:37:52;;;;;;;1.38;1.05;;;15.90;80.00;;;;;;5090699;28;20051;-61
2021/10/11 11:40:19;;;;;;;1.83;1.00;;;15.90;80.00;;;;;;5086364;28;20509;-61
2021/10/11 11:42:47;;;;;;;1.05;0.95;;;15.90;79.90;;;;;;5091992;28;20048;-62
2021/10/11 11:45:14;;;;;;;1.02;0.90;;;15.90;80.00;;;;;;5091290;28;20040;-61
2021/10/11 11:47:40;;;;;;;1.25;1.15;;;15.90;79.90;;;;;;5091512;28;20043;-62
2021/10/11 11:50:23;;;;;;;1.10;1.00;;;15.90;80.00;;;;;;5091657;28;20465;-62
2021/10/11 11:52:59;;;;;;;0.98;0.93;;;16.00;80.00;;;;;;5091125;28;20044;-61
2021/10/11 11:55:25;;;;;;;0.98;0.90;;;15.90;80.00;;;;;;5089753;28;20036;-61
2021/10/11 11:57:51;;;;;;;0.93;0.77;;;16.00;80.00;;;;;;5090499;28;20066;-62
2021/10/11 12:00:17;;;;;;;1.10;1.00;;;15.90;79.90;;;;;;5091342;28;20047;-61
2021/10/11 12:02:45;;;;;;;0.90;0.90;;;15.90;80.60;;;;;;5091429;28;20415;-62
2021/10/11 12:05:11;;;;;;;1.15;0.90;;;15.90;79.90;;;;;;5091104;28;20515;-61
2021/10/11 12:07:40;;;;;;;1.20;0.90;;;16.00;80.00;;;;;;5089610;28;20050;-62
2021/10/11 12:10:07;;;;;;;1.55;1.10;;;16.00;80.00;;;;;;5091482;28;20048;-62
2021/10/11 12:12:35;;;;;;;0.88;0.88;;;16.00;80.00;;;;;;5090292;28;20055;-63
2021/10/11 12:15:02;;;;;;;1.38;0.90;;;16.00;79.90;;;;;;5090925;28;20039;-61
2021/10/11 12:17:37;;;;;;;1.17;0.90;;;15.90;79.90;;;;;;5090798;28;20488;-63
2021/10/11 12:20:03;;;;;;;1.08;0.80;;;16.00;80.00;;;;;;5087989;28;20131;-61
2021/10/11 12:22:33;;;;;;;1.90;1.20;;;16.00;80.00;;;;;;5090653;28;20048;-63
2021/10/11 12:25:04;;;;;;;0.80;0.80;;;16.00;80.00;;;;;;5090701;28;20546;-61
2021/10/11 12:27:30;;;;;;;1.45;0.73;;;16.00;80.00;;;;;;5090625;28;20036;-62
2021/10/11 12:30:01;;;;;;;2.05;0.95;;;16.00;79.90;;;;;;5090843;28;20060;-62
2021/10/11 12:32:30;;;;;;;1.10;0.88;;;16.00;79.90;;;;;;5091130;28;20492;-61
2021/10/11 12:34:57;;;;;;;0.75;0.75;;;16.00;79.90;;;;;;5090596;28;20450;-61
2021/10/11 12:37:23;;;;;;;1.50;1.00;;;16.00;79.90;;;;;;5088651;28;20115;-60
2021/10/11 12:39:52;;;;;;;2.85;1.30;;;16.00;79.90;;;;;;5091317;28;20084;-61
2021/10/11 12:42:24;;;;;;;0.68;0.68;;;16.00;79.90;;;;;;5090816;28;20114;-61
2021/10/11 12:44:55;;;;;;;1.05;0.95;;;16.00;79.90;;;;;;5084710;28;20140;-60
2021/10/11 12:47:29;;;;;;;1.55;0.90;;;16.00;79.90;;;;;;5087278;28;20541;-62